EPGD/GDN METAR and TAF weather

Enter ICAO airport designator
Station Type Date Time Source
EPGD METAR 2019/04/25 21:30 UTC NOAA

EPGD 252130Z VRB01KT CAVOK 16/10 Q1013


Station Type Date Time Source
EPGD Decoded METAR 2019/04/25 21:30 UTC NOAA

Gdansk-Rebiechowo, Poland (EPGD) 54-23N 018-28E 138M
Apr 25, 2019 - 05:30 PM EDT / 2019.04.25 2130 UTC
Wind: Variable at 1 MPH (1 KT):0
Visibility: greater than 7 mile(s):0
Temperature: 60 F (16 C)
Dew Point: 50 F (10 C)
Relative Humidity: 67%
Pressure (altimeter): 29.91 in. Hg (1013 hPa)
ob: EPGD 252130Z VRB01KT CAVOK 16/10 Q1013
cycle: 21

Station Type Date Time Source
EPGD TAF 2019/04/25 18:33 UTC NOAA

TAF TAF EPGD 251730Z 2518/2618 15010KT CAVOK
TEMPO 2518/2522 4000 SHRA SCT040CB PROB40
TEMPO 2519/2522 TSRA
BECMG 2519/2522 VRB02KT PROB40 2521/2607 3000 BR
BECMG 2607/2609 12010KT
TEMPO 2612/2618 BKN040CB

Example: see airport list